Kapaa, HI

10:59 AM HST on August 28, 2016 (GMT -1000)
Queen's Acres | | Change Station

Elev 348 ft 22.07 °N, 159.36 °W | Updated 10 seconds ago

Overcast
Overcast
74.3 °F
Feels Like 72 °F
N
0.9
Wind Variable Wind from East
Gusts 2.5 mph

Today
High -- | Low -- °F
--% Chance of Precip.
Yesterday
High -- | Low -- °F
Precip. -- in
Pressure 29.99 in
Visibility 10.0 miles
Clouds Few 1800 ft
Mostly Cloudy 3000 ft
Overcast 5000 ft
Heat Index 72 °F
Dew Point 72 °F
Humidity 92%
Rainfall 0.89 in
Snow Depth Not available.
6:19 AM 6:57 PM
Waning Crescent, 13% visible
METAR PHLI 282053Z 09019KT 10SM FEW018 BKN030 OVC050 27/23 A3000 RMK AO2 RAE28 SLP156 P0002 60006 T02670228 58001
Pressure 29.99 in
Visibility 10.0 miles
Clouds Few 1800 ft
Mostly Cloudy 3000 ft
Overcast 5000 ft
Heat Index 72 °F
Dew Point 72 °F
Humidity 92%
Rainfall 0.89 in
Snow Depth Not available.
6:19 AM 6:57 PM
Waning Crescent, 13% visible
METAR PHLI 282053Z 09019KT 10SM FEW018 BKN030 OVC050 27/23 A3000 RMK AO2 RAE28 SLP156 P0002 60006 T02670228 58001

10-Day Weather Forecast

Almanac

Astronomy

Aug. 28, 2016 Rise Set
Actual Time
Civil Twilight
Nautical Twilight
Astronomical Twilight
Moon
Length of Visible Light
Length of Day
Tomorrow will be .
, % of the Moon is Illuminated

Today's Extremes

State Highs State Lows

Community

WunderPhotos

Upload Photos

1,935,689 photos uploaded!

WunderBlog® & News

Nearby

Air Quality

  Air Quality AQ Index Pollutant
Not available.

Snow Depth

Station Depth Elevation

Earthquake Activity

City Distance Mag. Time & Date
Minimum magnitude displayed is 2.5.

Coastal Water Temperatures

Place Temperature

Stations

Nearby Weather Stations

Station Location Temp. Windchill Dew Point Humidity Wind Precip. Elev Updated Type
                   

Watches & Warnings

There are currently no watches in effect.